sensor_id;sensor_type;location;lat;lon;timestamp;pressure;altitude;pressure_sealevel;temperature;humidity
72548;BME280;60570;50.848;6.776;2022-11-04T00:00:20;99222.75;;;13.94;65.78
72548;BME280;60570;50.848;6.776;2022-11-04T00:01:21;99226.38;;;13.94;65.83
72548;BME280;60570;50.848;6.776;2022-11-04T00:02:21;99227.16;;;13.95;65.61
72548;BME280;60570;50.848;6.776;2022-11-04T00:03:22;99228.75;;;13.96;65.77
72548;BME280;60570;50.848;6.776;2022-11-04T00:04:25;99225.56;;;13.94;65.75
72548;BME280;60570;50.848;6.776;2022-11-04T00:05:25;99236.31;;;13.95;65.46
72548;BME280;60570;50.848;6.776;2022-11-04T00:06:26;99229.13;;;13.91;66.14
72548;BME280;60570;50.848;6.776;2022-11-04T00:07:26;99234.31;;;13.92;66.04
72548;BME280;60570;50.848;6.776;2022-11-04T00:08:52;99233.94;;;13.94;65.48
72548;BME280;60570;50.848;6.776;2022-11-04T00:09:53;99240.72;;;13.93;66.03
72548;BME280;60570;50.848;6.776;2022-11-04T00:10:54;99238.28;;;13.91;65.67
72548;BME280;60570;50.848;6.776;2022-11-04T00:12:13;99243.88;;;13.91;65.59
72548;BME280;60570;50.848;6.776;2022-11-04T00:13:28;99254.25;;;13.91;65.64
72548;BME280;60570;50.848;6.776;2022-11-04T00:14:29;99256.66;;;13.92;65.37
72548;BME280;60570;50.848;6.776;2022-11-04T00:15:35;99255.03;;;13.91;65.58
72548;BME280;60570;50.848;6.776;2022-11-04T00:16:54;99253.06;;;13.92;65.89
72548;BME280;60570;50.848;6.776;2022-11-04T00:18:12;99257.06;;;13.91;65.55
72548;BME280;60570;50.848;6.776;2022-11-04T00:19:13;99258.66;;;13.92;65.75
72548;BME280;60570;50.848;6.776;2022-11-04T00:20:13;99264.63;;;13.90;65.87
72548;BME280;60570;50.848;6.776;2022-11-04T00:21:32;99263.41;;;13.88;65.61
72548;BME280;60570;50.848;6.776;2022-11-04T00:22:51;99258.63;;;13.88;65.87
72548;BME280;60570;50.848;6.776;2022-11-04T00:24:11;99265.78;;;13.89;66.00
72548;BME280;60570;50.848;6.776;2022-11-04T00:25:30;99261.03;;;13.90;65.52
72548;BME280;60570;50.848;6.776;2022-11-04T00:26:49;99264.22;;;13.88;65.83
72548;BME280;60570;50.848;6.776;2022-11-04T00:28:11;99262.63;;;13.87;65.90
72548;BME280;60570;50.848;6.776;2022-11-04T00:29:30;99260.22;;;13.89;65.76
72548;BME280;60570;50.848;6.776;2022-11-04T00:30:30;99273.38;;;13.89;65.83
72548;BME280;60570;50.848;6.776;2022-11-04T00:31:31;99278.97;;;13.89;65.58
72548;BME280;60570;50.848;6.776;2022-11-04T00:32:50;99273.38;;;13.89;65.85
72548;BME280;60570;50.848;6.776;2022-11-04T00:34:10;99276.19;;;13.89;65.67
72548;BME280;60570;50.848;6.776;2022-11-04T00:35:11;99273.78;;;13.87;65.66
72548;BME280;60570;50.848;6.776;2022-11-04T00:36:12;99276.16;;;13.85;65.47
72548;BME280;60570;50.848;6.776;2022-11-04T00:37:12;99279.72;;;13.86;65.75
72548;BME280;60570;50.848;6.776;2022-11-04T00:38:12;99280.13;;;13.84;65.61
72548;BME280;60570;50.848;6.776;2022-11-04T00:39:13;99279.38;;;13.87;65.92
72548;BME280;60570;50.848;6.776;2022-11-04T00:40:14;99279.38;;;13.87;65.24
72548;BME280;60570;50.848;6.776;2022-11-04T00:41:15;99275.38;;;13.88;65.48
72548;BME280;60570;50.848;6.776;2022-11-04T00:42:29;99280.16;;;13.88;65.80
72548;BME280;60570;50.848;6.776;2022-11-04T00:43:29;99271.78;;;13.88;65.29
72548;BME280;60570;50.848;6.776;2022-11-04T00:44:30;99278.97;;;13.89;65.60
72548;BME280;60570;50.848;6.776;2022-11-04T00:45:30;99282.53;;;13.89;65.48
72548;BME280;60570;50.848;6.776;2022-11-04T00:46:32;99274.56;;;13.88;65.64
72548;BME280;60570;50.848;6.776;2022-11-04T00:47:32;99281.34;;;13.87;65.90
72548;BME280;60570;50.848;6.776;2022-11-04T00:48:33;99270.59;;;13.85;65.60
72548;BME280;60570;50.848;6.776;2022-11-04T00:49:33;99279.72;;;13.86;65.63
72548;BME280;60570;50.848;6.776;2022-11-04T00:50:34;99278.16;;;13.85;65.60
72548;BME280;60570;50.848;6.776;2022-11-04T00:51:34;99275.34;;;13.85;65.65
72548;BME280;60570;50.848;6.776;2022-11-04T00:52:35;99277.75;;;13.86;65.89
72548;BME280;60570;50.848;6.776;2022-11-04T00:53:35;99281.75;;;13.85;65.59
72548;BME280;60570;50.848;6.776;2022-11-04T00:54:35;99281.75;;;13.85;65.76
72548;BME280;60570;50.848;6.776;2022-11-04T00:55:36;99289.72;;;13.87;65.86
72548;BME280;60570;50.848;6.776;2022-11-04T00:56:37;99288.53;;;13.88;65.53
72548;BME280;60570;50.848;6.776;2022-11-04T00:57:38;99294.09;;;13.88;66.06
72548;BME280;60570;50.848;6.776;2022-11-04T00:58:38;99292.53;;;13.87;65.34
72548;BME280;60570;50.848;6.776;2022-11-04T00:59:39;99300.09;;;13.86;65.50
72548;BME280;60570;50.848;6.776;2022-11-04T01:00:39;99306.06;;;13.85;65.59
72548;BME280;60570;50.848;6.776;2022-11-04T01:01:40;99307.22;;;13.84;65.59
72548;BME280;60570;50.848;6.776;2022-11-04T01:02:41;99306.06;;;13.85;65.36
72548;BME280;60570;50.848;6.776;2022-11-04T01:03:41;99310.03;;;13.84;65.65
72548;BME280;60570;50.848;6.776;2022-11-04T01:04:42;99317.22;;;13.85;65.49
72548;BME280;60570;50.848;6.776;2022-11-04T01:05:42;99320.41;;;13.83;65.65
72548;BME280;60570;50.848;6.776;2022-11-04T01:06:43;99306.44;;;13.83;65.54
72548;BME280;60570;50.848;6.776;2022-11-04T01:07:43;99316.00;;;13.82;65.91
72548;BME280;60570;50.848;6.776;2022-11-04T01:08:44;99311.63;;;13.81;65.54
72548;BME280;60570;50.848;6.776;2022-11-04T01:09:44;99320.00;;;13.81;65.52
72548;BME280;60570;50.848;6.776;2022-11-04T01:10:45;99320.00;;;13.81;65.42
72548;BME280;60570;50.848;6.776;2022-11-04T01:11:45;99315.19;;;13.82;65.50
72548;BME280;60570;50.848;6.776;2022-11-04T01:12:46;99317.97;;;13.82;65.51
72548;BME280;60570;50.848;6.776;2022-11-04T01:13:49;99322.78;;;13.81;65.32
72548;BME280;60570;50.848;6.776;2022-11-04T01:14:49;99328.38;;;13.81;65.35
72548;BME280;60570;50.848;6.776;2022-11-04T01:15:49;99336.75;;;13.81;65.38
72548;BME280;60570;50.848;6.776;2022-11-04T01:16:50;99340.72;;;13.80;65.59
72548;BME280;60570;50.848;6.776;2022-11-04T01:17:51;99339.91;;;13.80;65.62
72548;BME280;60570;50.848;6.776;2022-11-04T01:18:51;99342.69;;;13.80;65.48
72548;BME280;60570;50.848;6.776;2022-11-04T01:19:52;99338.72;;;13.81;65.00
72548;BME280;60570;50.848;6.776;2022-11-04T01:20:53;99343.50;;;13.80;65.26
72548;BME280;60570;50.848;6.776;2022-11-04T01:21:53;99341.91;;;13.79;65.30
72548;BME280;60570;50.848;6.776;2022-11-04T01:22:54;99341.91;;;13.79;65.25
72548;BME280;60570;50.848;6.776;2022-11-04T01:23:55;99341.09;;;13.79;65.40
72548;BME280;60570;50.848;6.776;2022-11-04T01:24:55;99349.47;;;13.79;65.31
72548;BME280;60570;50.848;6.776;2022-11-04T01:25:56;99350.28;;;13.79;65.42
72548;BME280;60570;50.848;6.776;2022-11-04T01:26:56;99354.66;;;13.80;65.32
72548;BME280;60570;50.848;6.776;2022-11-04T01:27:57;99363.44;;;13.79;65.41
72548;BME280;60570;50.848;6.776;2022-11-04T01:28:57;99353.44;;;13.78;65.25
72548;BME280;60570;50.848;6.776;2022-11-04T01:29:59;99353.03;;;13.76;65.22
72548;BME280;60570;50.848;6.776;2022-11-04T01:32:07;99354.22;;;13.75;65.20
72548;BME280;60570;50.848;6.776;2022-11-04T01:33:07;99355.03;;;13.75;65.12
72548;BME280;60570;50.848;6.776;2022-11-04T01:34:08;99355.81;;;13.76;65.17
72548;BME280;60570;50.848;6.776;2022-11-04T01:35:09;99356.19;;;13.74;65.33
72548;BME280;60570;50.848;6.776;2022-11-04T01:36:09;99353.81;;;13.73;65.36
72548;BME280;60570;50.848;6.776;2022-11-04T01:37:10;99355.00;;;13.72;65.07
72548;BME280;60570;50.848;6.776;2022-11-04T01:38:10;99358.97;;;13.71;65.15
72548;BME280;60570;50.848;6.776;2022-11-04T01:39:11;99356.56;;;13.69;65.44
72548;BME280;60570;50.848;6.776;2022-11-04T01:40:12;99357.38;;;13.70;65.67
72548;BME280;60570;50.848;6.776;2022-11-04T01:41:21;99360.16;;;13.70;65.46
72548;BME280;60570;50.848;6.776;2022-11-04T01:42:22;99358.53;;;13.69;65.23
72548;BME280;60570;50.848;6.776;2022-11-04T01:43:42;99364.13;;;13.69;65.29
72548;BME280;60570;50.848;6.776;2022-11-04T01:45:13;99354.59;;;13.70;65.29
72548;BME280;60570;50.848;6.776;2022-11-04T01:46:36;99365.34;;;13.71;65.32
72548;BME280;60570;50.848;6.776;2022-11-04T01:47:43;99362.97;;;13.70;65.02
72548;BME280;60570;50.848;6.776;2022-11-04T01:48:46;99366.53;;;13.70;65.04
72548;BME280;60570;50.848;6.776;2022-11-04T01:49:50;99364.97;;;13.73;65.30
72548;BME280;60570;50.848;6.776;2022-11-04T01:50:52;99359.78;;;13.71;65.15
72548;BME280;60570;50.848;6.776;2022-11-04T01:52:09;99358.56;;;13.72;64.75
72548;BME280;60570;50.848;6.776;2022-11-04T01:53:18;99364.16;;;13.72;65.07
72548;BME280;60570;50.848;6.776;2022-11-04T01:54:20;99356.97;;;13.71;64.97
72548;BME280;60570;50.848;6.776;2022-11-04T01:55:26;99356.97;;;13.68;64.99
72548;BME280;60570;50.848;6.776;2022-11-04T01:56:28;99357.31;;;13.66;65.10
72548;BME280;60570;50.848;6.776;2022-11-04T01:57:35;99357.72;;;13.65;65.17
72548;BME280;60570;50.848;6.776;2022-11-04T01:58:45;99354.16;;;13.68;65.14
72548;BME280;60570;50.848;6.776;2022-11-04T01:59:47;99357.31;;;13.66;64.83
72548;BME280;60570;50.848;6.776;2022-11-04T02:00:48;99353.75;;;13.66;65.22
72548;BME280;60570;50.848;6.776;2022-11-04T02:01:49;99357.72;;;13.65;64.84
72548;BME280;60570;50.848;6.776;2022-11-04T02:02:52;99352.13;;;13.65;64.97
72548;BME280;60570;50.848;6.776;2022-11-04T02:03:56;99346.97;;;13.67;65.13
72548;BME280;60570;50.848;6.776;2022-11-04T02:05:17;99362.13;;;13.66;65.28
72548;BME280;60570;50.848;6.776;2022-11-04T02:06:19;99352.94;;;13.65;64.78
72548;BME280;60570;50.848;6.776;2022-11-04T02:07:20;99349.72;;;13.63;64.83
72548;BME280;60570;50.848;6.776;2022-11-04T02:08:21;99360.88;;;13.63;65.13
72548;BME280;60570;50.848;6.776;2022-11-04T02:09:23;99356.13;;;13.64;64.95
72548;BME280;60570;50.848;6.776;2022-11-04T02:10:27;99349.31;;;13.61;65.04
72548;BME280;60570;50.848;6.776;2022-11-04T02:11:28;99356.06;;;13.60;64.94
72548;BME280;60570;50.848;6.776;2022-11-04T02:12:47;99354.88;;;13.61;65.23
72548;BME280;60570;50.848;6.776;2022-11-04T02:13:50;99362.13;;;13.66;64.76
72548;BME280;60570;50.848;6.776;2022-11-04T02:14:51;99361.69;;;13.64;64.74
72548;BME280;60570;50.848;6.776;2022-11-04T02:16:11;99351.72;;;13.63;64.86
72548;BME280;60570;50.848;6.776;2022-11-04T02:19:45;99342.50;;;13.59;64.83
72548;BME280;60570;50.848;6.776;2022-11-04T02:21:12;99341.72;;;13.58;64.64
72548;BME280;60570;50.848;6.776;2022-11-04T02:23:53;99342.88;;;13.57;64.92
72548;BME280;60570;50.848;6.776;2022-11-04T02:28:10;99338.13;;;13.58;64.50
72548;BME280;60570;50.848;6.776;2022-11-04T02:31:02;99341.72;;;13.58;64.68
72548;BME280;60570;50.848;6.776;2022-11-04T02:33:20;99339.28;;;13.57;64.60
72548;BME280;60570;50.848;6.776;2022-11-04T02:34:48;99337.69;;;13.56;64.65
72548;BME280;60570;50.848;6.776;2022-11-04T02:36:01;99346.03;;;13.52;64.47
72548;BME280;60570;50.848;6.776;2022-11-04T02:37:15;99344.00;;;13.49;64.78
72548;BME280;60570;50.848;6.776;2022-11-04T02:38:50;99337.59;;;13.45;64.74
72548;BME280;60570;50.848;6.776;2022-11-04T02:40:32;99327.66;;;13.47;64.59
72548;BME280;60570;50.848;6.776;2022-11-04T02:43:57;99333.25;;;13.51;64.53
72548;BME280;60570;50.848;6.776;2022-11-04T02:45:13;99332.09;;;13.52;64.61
72548;BME280;60570;50.848;6.776;2022-11-04T02:46:57;99333.22;;;13.47;64.69
72548;BME280;60570;50.848;6.776;2022-11-04T02:48:38;99336.41;;;13.46;64.59
72548;BME280;60570;50.848;6.776;2022-11-04T02:49:51;99340.38;;;13.45;64.62
72548;BME280;60570;50.848;6.776;2022-11-04T02:51:00;99339.97;;;13.46;64.61
72548;BME280;60570;50.848;6.776;2022-11-04T02:52:08;99338.81;;;13.47;64.53
72548;BME280;60570;50.848;6.776;2022-11-04T02:53:17;99348.34;;;13.46;64.61
72548;BME280;60570;50.848;6.776;2022-11-04T02:54:59;99346.38;;;13.47;64.34
72548;BME280;60570;50.848;6.776;2022-11-04T02:55:57;99351.53;;;13.45;64.49
72548;BME280;60570;50.848;6.776;2022-11-04T02:57:00;99343.53;;;13.43;64.64
72548;BME280;60570;50.848;6.776;2022-11-04T02:58:05;99337.16;;;13.43;64.50
72548;BME280;60570;50.848;6.776;2022-11-04T02:59:17;99343.53;;;13.43;64.59
72548;BME280;60570;50.848;6.776;2022-11-04T03:00:19;99337.59;;;13.45;64.32
72548;BME280;60570;50.848;6.776;2022-11-04T03:01:25;99339.94;;;13.43;64.50
72548;BME280;60570;50.848;6.776;2022-11-04T03:03:03;99339.16;;;13.42;64.39
72548;BME280;60570;50.848;6.776;2022-11-04T03:04:15;99339.56;;;13.44;64.42
72548;BME280;60570;50.848;6.776;2022-11-04T03:05:21;99339.94;;;13.43;64.38
72548;BME280;60570;50.848;6.776;2022-11-04T03:06:25;99348.31;;;13.43;64.33
72548;BME280;60570;50.848;6.776;2022-11-04T03:07:31;99350.31;;;13.42;64.27
72548;BME280;60570;50.848;6.776;2022-11-04T03:08:40;99332.34;;;13.40;64.40
72548;BME280;60570;50.848;6.776;2022-11-04T03:09:47;99333.53;;;13.39;64.19
72548;BME280;60570;50.848;6.776;2022-11-04T03:10:54;99337.91;;;13.36;64.27
72548;BME280;60570;50.848;6.776;2022-11-04T03:12:00;99337.91;;;13.36;64.46
72548;BME280;60570;50.848;6.776;2022-11-04T03:13:13;99334.69;;;13.34;64.34
72548;BME280;60570;50.848;6.776;2022-11-04T03:14:18;99333.50;;;13.35;64.52
72548;BME280;60570;50.848;6.776;2022-11-04T03:15:21;99337.09;;;13.36;64.55
72548;BME280;60570;50.848;6.776;2022-11-04T03:16:34;99335.91;;;13.37;64.31
72548;BME280;60570;50.848;6.776;2022-11-04T03:18:11;99325.13;;;13.35;64.41
72548;BME280;60570;50.848;6.776;2022-11-04T03:20:39;99330.72;;;13.35;64.34
72548;BME280;60570;50.848;6.776;2022-11-04T03:21:46;99323.91;;;13.33;64.11
72548;BME280;60570;50.848;6.776;2022-11-04T03:22:49;99325.09;;;13.32;64.39
72548;BME280;60570;50.848;6.776;2022-11-04T03:23:54;99325.91;;;13.32;64.17
72548;BME280;60570;50.848;6.776;2022-11-04T03:24:55;99331.84;;;13.31;64.51
72548;BME280;60570;50.848;6.776;2022-11-04T03:26:03;99329.88;;;13.31;64.60
72548;BME280;60570;50.848;6.776;2022-11-04T03:30:03;99329.06;;;13.31;64.49
72548;BME280;60570;50.848;6.776;2022-11-04T03:31:08;99327.47;;;13.30;64.30
72548;BME280;60570;50.848;6.776;2022-11-04T03:33:46;99329.44;;;13.29;64.08
72548;BME280;60570;50.848;6.776;2022-11-04T03:34:48;99333.81;;;13.27;64.30
72548;BME280;60570;50.848;6.776;2022-11-04T03:35:48;99329.03;;;13.27;64.28
72548;BME280;60570;50.848;6.776;2022-11-04T03:36:49;99337.81;;;13.29;64.30
72548;BME280;60570;50.848;6.776;2022-11-04T03:37:49;99331.81;;;13.27;64.15
72548;BME280;60570;50.848;6.776;2022-11-04T03:38:51;99343.34;;;13.26;64.20
72548;BME280;60570;50.848;6.776;2022-11-04T03:39:52;99339.34;;;13.23;64.13
72548;BME280;60570;50.848;6.776;2022-11-04T03:40:52;99336.56;;;13.23;64.38
72548;BME280;60570;50.848;6.776;2022-11-04T03:41:55;99338.16;;;13.24;64.13
72548;BME280;60570;50.848;6.776;2022-11-04T03:43:05;99339.31;;;13.20;64.23
72548;BME280;60570;50.848;6.776;2022-11-04T03:44:07;99340.13;;;13.20;64.08
72548;BME280;60570;50.848;6.776;2022-11-04T03:45:08;99335.72;;;13.19;64.32
72548;BME280;60570;50.848;6.776;2022-11-04T03:46:09;99330.94;;;13.20;64.13
72548;BME280;60570;50.848;6.776;2022-11-04T03:47:10;99332.91;;;13.19;64.37
72548;BME280;60570;50.848;6.776;2022-11-04T03:48:11;99329.78;;;13.21;64.10
72548;BME280;60570;50.848;6.776;2022-11-04T03:49:12;99330.94;;;13.20;64.32
72548;BME280;60570;50.848;6.776;2022-11-04T03:51:25;99324.94;;;13.18;64.32
72548;BME280;60570;50.848;6.776;2022-11-04T03:52:25;99331.72;;;13.17;64.06
72548;BME280;60570;50.848;6.776;2022-11-04T03:53:27;99326.13;;;13.17;64.18
72548;BME280;60570;50.848;6.776;2022-11-04T03:54:29;99326.13;;;13.17;64.45
72548;BME280;60570;50.848;6.776;2022-11-04T03:55:40;99318.19;;;13.19;64.16
72548;BME280;60570;50.848;6.776;2022-11-04T03:59:54;99329.31;;;13.15;64.22
72548;BME280;60570;50.848;6.776;2022-11-04T04:02:34;99332.09;;;13.15;64.53
72548;BME280;60570;50.848;6.776;2022-11-04T04:03:50;99326.88;;;13.14;64.21
72548;BME280;60570;50.848;6.776;2022-11-04T04:05:04;99336.44;;;13.13;64.35
72548;BME280;60570;50.848;6.776;2022-11-04T04:06:15;99334.88;;;13.15;64.27
72548;BME280;60570;50.848;6.776;2022-11-04T04:07:23;99332.47;;;13.14;64.23
72548;BME280;60570;50.848;6.776;2022-11-04T04:08:58;99336.06;;;13.14;64.30
72548;BME280;60570;50.848;6.776;2022-11-04T04:12:46;99335.63;;;13.12;64.24
72548;BME280;60570;50.848;6.776;2022-11-04T04:13:54;99346.78;;;13.12;64.44
72548;BME280;60570;50.848;6.776;2022-11-04T04:15:12;99337.63;;;13.12;64.34
72548;BME280;60570;50.848;6.776;2022-11-04T04:16:28;99332.81;;;13.09;64.55
72548;BME280;60570;50.848;6.776;2022-11-04T04:17:34;99339.19;;;13.09;64.43
72548;BME280;60570;50.848;6.776;2022-11-04T04:18:46;99332.00;;;13.08;64.57
72548;BME280;60570;50.848;6.776;2022-11-04T04:19:56;99332.81;;;13.09;64.39
72548;BME280;60570;50.848;6.776;2022-11-04T04:20:59;99325.63;;;13.08;64.31
72548;BME280;60570;50.848;6.776;2022-11-04T04:22:06;99332.00;;;13.08;64.52
72548;BME280;60570;50.848;6.776;2022-11-04T04:23:11;99332.81;;;13.09;64.37
72548;BME280;60570;50.848;6.776;2022-11-04T04:24:35;99331.59;;;13.06;64.44
72548;BME280;60570;50.848;6.776;2022-11-04T04:25:58;99336.78;;;13.08;64.49
72548;BME280;60570;50.848;6.776;2022-11-04T04:27:18;99330.00;;;13.05;64.49
72548;BME280;60570;50.848;6.776;2022-11-04T04:28:33;99337.59;;;13.08;64.41
72548;BME280;60570;50.848;6.776;2022-11-04T04:29:34;99333.97;;;13.08;64.30
72548;BME280;60570;50.848;6.776;2022-11-04T04:30:36;99342.34;;;13.08;64.29
72548;BME280;60570;50.848;6.776;2022-11-04T04:31:38;99343.53;;;13.07;64.36
72548;BME280;60570;50.848;6.776;2022-11-04T04:32:52;99341.91;;;13.06;64.38
72548;BME280;60570;50.848;6.776;2022-11-04T04:33:54;99337.94;;;13.03;64.33
72548;BME280;60570;50.848;6.776;2022-11-04T04:34:55;99333.94;;;13.04;64.25
72548;BME280;60570;50.848;6.776;2022-11-04T04:36:15;99337.94;;;13.03;64.32
72548;BME280;60570;50.848;6.776;2022-11-04T04:37:21;99331.16;;;13.04;64.33
72548;BME280;60570;50.848;6.776;2022-11-04T04:38:27;99324.78;;;13.04;64.37
72548;BME280;60570;50.848;6.776;2022-11-04T04:39:52;99333.13;;;13.04;64.28
72548;BME280;60570;50.848;6.776;2022-11-04T04:41:19;99333.50;;;13.02;64.08
72548;BME280;60570;50.848;6.776;2022-11-04T04:42:38;99332.34;;;13.03;64.21
72548;BME280;60570;50.848;6.776;2022-11-04T04:43:58;99341.84;;;13.02;64.05
72548;BME280;60570;50.848;6.776;2022-11-04T04:45:36;99349.03;;;13.00;64.35
72548;BME280;60570;50.848;6.776;2022-11-04T04:46:38;99341.44;;;13.00;64.24
72548;BME280;60570;50.848;6.776;2022-11-04T04:47:44;99342.22;;;12.97;64.34
72548;BME280;60570;50.848;6.776;2022-11-04T04:48:45;99340.22;;;12.98;64.23
72548;BME280;60570;50.848;6.776;2022-11-04T04:49:56;99342.94;;;12.94;64.50
72548;BME280;60570;50.848;6.776;2022-11-04T04:50:58;99353.34;;;12.97;64.25
72548;BME280;60570;50.848;6.776;2022-11-04T04:52:06;99352.53;;;12.97;64.30
72548;BME280;60570;50.848;6.776;2022-11-04T04:53:07;99350.16;;;12.95;64.10
72548;BME280;60570;50.848;6.776;2022-11-04T04:54:07;99347.34;;;12.95;64.24
72548;BME280;60570;50.848;6.776;2022-11-04T04:55:08;99347.75;;;12.94;64.29
72548;BME280;60570;50.848;6.776;2022-11-04T04:56:09;99350.53;;;12.94;64.41
72548;BME280;60570;50.848;6.776;2022-11-04T04:57:10;99349.72;;;12.93;64.33
72548;BME280;60570;50.848;6.776;2022-11-04T04:58:10;99348.91;;;12.93;64.49
72548;BME280;60570;50.848;6.776;2022-11-04T04:59:10;99352.50;;;12.93;64.20
72548;BME280;60570;50.848;6.776;2022-11-04T05:00:14;99352.50;;;12.93;64.42
72548;BME280;60570;50.848;6.776;2022-11-04T05:01:15;99354.47;;;12.93;64.45
72548;BME280;60570;50.848;6.776;2022-11-04T05:02:16;99352.94;;;12.95;64.20
72548;BME280;60570;50.848;6.776;2022-11-04T05:03:16;99348.91;;;12.93;64.18
72548;BME280;60570;50.848;6.776;2022-11-04T05:04:16;99358.81;;;12.90;64.77
72548;BME280;60570;50.848;6.776;2022-11-04T05:05:17;99350.09;;;12.92;64.18
72548;BME280;60570;50.848;6.776;2022-11-04T05:06:18;99345.69;;;12.91;64.27
72548;BME280;60570;50.848;6.776;2022-11-04T05:07:18;99345.69;;;12.91;64.35
72548;BME280;60570;50.848;6.776;2022-11-04T05:08:19;99344.53;;;12.92;64.28
72548;BME280;60570;50.848;6.776;2022-11-04T05:09:19;99334.16;;;12.92;64.29
72548;BME280;60570;50.848;6.776;2022-11-04T05:10:20;99338.97;;;12.92;64.43
72548;BME280;60570;50.848;6.776;2022-11-04T05:11:20;99336.53;;;12.90;64.37
72548;BME280;60570;50.848;6.776;2022-11-04T05:12:21;99333.38;;;12.92;64.47
72548;BME280;60570;50.848;6.776;2022-11-04T05:13:21;99337.75;;;12.93;64.26
72548;BME280;60570;50.848;6.776;2022-11-04T05:14:29;99332.16;;;12.89;64.32
72548;BME280;60570;50.848;6.776;2022-11-04T05:15:30;99338.09;;;12.88;64.25
72548;BME280;60570;50.848;6.776;2022-11-04T05:16:30;99324.19;;;12.88;64.50
72548;BME280;60570;50.848;6.776;2022-11-04T05:17:31;99322.16;;;12.88;64.42
72548;BME280;60570;50.848;6.776;2022-11-04T05:18:31;99326.16;;;12.87;64.37
72548;BME280;60570;50.848;6.776;2022-11-04T05:19:31;99323.38;;;12.87;64.16
72548;BME280;60570;50.848;6.776;2022-11-04T05:20:32;99322.56;;;12.87;64.48
72548;BME280;60570;50.848;6.776;2022-11-04T05:21:33;99324.91;;;12.85;64.38
72548;BME280;60570;50.848;6.776;2022-11-04T05:22:34;99322.56;;;12.87;64.30
72548;BME280;60570;50.848;6.776;2022-11-04T05:23:34;99329.72;;;12.84;64.55
72548;BME280;60570;50.848;6.776;2022-11-04T05:24:35;99327.28;;;12.83;64.13
72548;BME280;60570;50.848;6.776;2022-11-04T05:25:35;99320.94;;;12.82;64.22
72548;BME280;60570;50.848;6.776;2022-11-04T05:26:36;99318.13;;;12.82;64.45
72548;BME280;60570;50.848;6.776;2022-11-04T05:27:36;99323.72;;;12.82;64.55
72548;BME280;60570;50.848;6.776;2022-11-04T05:28:37;99318.13;;;12.82;64.33
72548;BME280;60570;50.848;6.776;2022-11-04T05:29:38;99323.72;;;12.82;64.36
72548;BME280;60570;50.848;6.776;2022-11-04T05:30:38;99323.28;;;12.80;64.38
72548;BME280;60570;50.848;6.776;2022-11-04T05:31:39;99317.72;;;12.80;64.34
72548;BME280;60570;50.848;6.776;2022-11-04T05:32:39;99328.06;;;12.80;64.39
72548;BME280;60570;50.848;6.776;2022-11-04T05:33:40;99330.84;;;12.80;64.39
72548;BME280;60570;50.848;6.776;2022-11-04T05:34:40;99324.84;;;12.78;64.28
72548;BME280;60570;50.848;6.776;2022-11-04T05:35:41;99327.25;;;12.79;64.39
72548;BME280;60570;50.848;6.776;2022-11-04T05:36:41;99320.50;;;12.80;64.54
72548;BME280;60570;50.848;6.776;2022-11-04T05:37:41;99326.84;;;12.81;64.24
72548;BME280;60570;50.848;6.776;2022-11-04T05:38:42;99329.66;;;12.81;64.36
72548;BME280;60570;50.848;6.776;2022-11-04T05:39:43;99330.03;;;12.79;64.30
72548;BME280;60570;50.848;6.776;2022-11-04T05:40:43;99330.84;;;12.80;64.37
72548;BME280;60570;50.848;6.776;2022-11-04T05:41:43;99326.06;;;12.80;64.53
72548;BME280;60570;50.848;6.776;2022-11-04T05:42:44;99330.84;;;12.80;64.48
72548;BME280;60570;50.848;6.776;2022-11-04T05:43:44;99332.00;;;12.79;64.20
72548;BME280;60570;50.848;6.776;2022-11-04T05:44:45;99330.03;;;12.79;64.18
72548;BME280;60570;50.848;6.776;2022-11-04T05:45:45;99333.19;;;12.78;64.21
72548;BME280;60570;50.848;6.776;2022-11-04T05:46:45;99323.66;;;12.79;64.39
72548;BME280;60570;50.848;6.776;2022-11-04T05:47:46;99334.78;;;12.79;63.81
72548;BME280;60570;50.848;6.776;2022-11-04T05:48:46;99327.66;;;12.81;64.14
72548;BME280;60570;50.848;6.776;2022-11-04T05:49:47;99323.22;;;12.77;64.40
72548;BME280;60570;50.848;6.776;2022-11-04T05:50:47;99332.38;;;12.77;64.00
72548;BME280;60570;50.848;6.776;2022-11-04T05:51:48;99324.03;;;12.77;64.57
72548;BME280;60570;50.848;6.776;2022-11-04T05:52:48;99331.56;;;12.77;64.28
72548;BME280;60570;50.848;6.776;2022-11-04T05:53:49;99332.78;;;12.76;64.13
72548;BME280;60570;50.848;6.776;2022-11-04T05:54:49;99333.94;;;12.75;64.31
72548;BME280;60570;50.848;6.776;2022-11-04T05:55:50;99332.34;;;12.74;64.00
72548;BME280;60570;50.848;6.776;2022-11-04T05:56:50;99339.13;;;12.73;64.23
72548;BME280;60570;50.848;6.776;2022-11-04T05:57:51;99332.72;;;12.72;64.34
72548;BME280;60570;50.848;6.776;2022-11-04T05:58:52;99339.13;;;12.73;64.14
72548;BME280;60570;50.848;6.776;2022-11-04T05:59:52;99331.94;;;12.72;64.36
72548;BME280;60570;50.848;6.776;2022-11-04T06:00:53;99332.31;;;12.70;64.11
72548;BME280;60570;50.848;6.776;2022-11-04T06:01:53;99333.91;;;12.71;64.13
72548;BME280;60570;50.848;6.776;2022-11-04T06:02:54;99341.47;;;12.71;64.24
72548;BME280;60570;50.848;6.776;2022-11-04T06:03:59;99339.47;;;12.71;64.14
72548;BME280;60570;50.848;6.776;2022-11-04T06:04:59;99343.88;;;12.72;64.23
72548;BME280;60570;50.848;6.776;2022-11-04T06:06:00;99346.25;;;12.70;64.19
72548;BME280;60570;50.848;6.776;2022-11-04T06:07:03;99348.66;;;12.72;64.23
72548;BME280;60570;50.848;6.776;2022-11-04T06:08:03;99352.63;;;12.71;63.97
72548;BME280;60570;50.848;6.776;2022-11-04T06:09:04;99353.78;;;12.70;64.23
72548;BME280;60570;50.848;6.776;2022-11-04T06:10:05;99352.97;;;12.69;63.98
72548;BME280;60570;50.848;6.776;2022-11-04T06:11:06;99358.56;;;12.69;64.40
72548;BME280;60570;50.848;6.776;2022-11-04T06:12:11;99357.78;;;12.69;64.39
72548;BME280;60570;50.848;6.776;2022-11-04T06:13:15;99358.13;;;12.67;64.16
72548;BME280;60570;50.848;6.776;2022-11-04T06:14:15;99360.47;;;12.65;64.29
72548;BME280;60570;50.848;6.776;2022-11-04T06:15:16;99353.31;;;12.64;64.15